sensor_id;sensor_type;location;lat;lon;timestamp;pressure;altitude;pressure_sealevel;temperature;humidity
2675;BME280;1347;42.122;24.746;2024-02-21T00:01:48;100283.91;;;7.50;100.00
2675;BME280;1347;42.122;24.746;2024-02-21T00:04:15;100281.06;;;7.37;100.00
2675;BME280;1347;42.122;24.746;2024-02-21T00:06:42;100269.47;;;7.49;100.00
2675;BME280;1347;42.122;24.746;2024-02-21T00:09:09;100275.63;;;7.37;100.00
2675;BME280;1347;42.122;24.746;2024-02-21T00:11:36;100274.81;;;7.37;100.00
2675;BME280;1347;42.122;24.746;2024-02-21T00:14:03;100277.16;;;7.47;100.00
2675;BME280;1347;42.122;24.746;2024-02-21T00:16:29;100273.78;;;7.50;100.00
2675;BME280;1347;42.122;24.746;2024-02-21T00:18:58;100270.75;;;7.52;100.00
2675;BME280;1347;42.122;24.746;2024-02-21T00:21:24;100273.47;;;7.52;100.00
2675;BME280;1347;42.122;24.746;2024-02-21T00:23:51;100268.00;;;7.52;100.00
2675;BME280;1347;42.122;24.746;2024-02-21T00:26:18;100278.44;;;7.50;100.00
2675;BME280;1347;42.122;24.746;2024-02-21T00:28:45;100270.75;;;7.52;100.00
2675;BME280;1347;42.122;24.746;2024-02-21T00:31:12;100268.59;;;7.57;100.00
2675;BME280;1347;42.122;24.746;2024-02-21T00:33:38;100266.69;;;7.58;100.00
2675;BME280;1347;42.122;24.746;2024-02-21T00:36:07;100261.06;;;7.54;100.00
2675;BME280;1347;42.122;24.746;2024-02-21T00:38:34;100260.63;;;7.52;100.00
2675;BME280;1347;42.122;24.746;2024-02-21T00:41:01;100258.69;;;7.53;100.00
2675;BME280;1347;42.122;24.746;2024-02-21T00:43:27;100259.03;;;7.51;100.00
2675;BME280;1347;42.122;24.746;2024-02-21T00:45:54;100256.31;;;7.51;100.00
2675;BME280;1347;42.122;24.746;2024-02-21T00:48:21;100258.03;;;7.56;100.00
2675;BME280;1347;42.122;24.746;2024-02-21T00:50:48;100255.28;;;7.56;100.00
2675;BME280;1347;42.122;24.746;2024-02-21T00:53:17;100253.56;;;7.51;100.00
2675;BME280;1347;42.122;24.746;2024-02-21T00:55:43;100250.03;;;7.51;100.00
2675;BME280;1347;42.122;24.746;2024-02-21T00:58:10;100238.97;;;7.47;100.00
2675;BME280;1347;42.122;24.746;2024-02-21T01:00:37;100246.84;;;7.49;100.00
2675;BME280;1347;42.122;24.746;2024-02-21T01:03:04;100240.00;;;7.43;100.00
2675;BME280;1347;42.122;24.746;2024-02-21T01:05:31;100241.44;;;7.40;100.00
2675;BME280;1347;42.122;24.746;2024-02-21T01:07:58;100234.38;;;7.39;100.00
2675;BME280;1347;42.122;24.746;2024-02-21T01:10:26;100240.81;;;7.34;100.00
2675;BME280;1347;42.122;24.746;2024-02-21T01:12:53;100236.00;;;7.40;100.00
2675;BME280;1347;42.122;24.746;2024-02-21T01:15:20;100229.19;;;7.46;100.00
2675;BME280;1347;42.122;24.746;2024-02-21T01:17:47;100229.53;;;7.45;100.00
2675;BME280;1347;42.122;24.746;2024-02-21T01:20:15;100227.59;;;7.45;100.00
2675;BME280;1347;42.122;24.746;2024-02-21T01:22:42;100228.72;;;7.44;100.00
2675;BME280;1347;42.122;24.746;2024-02-21T01:25:09;100231.00;;;7.42;100.00
2675;BME280;1347;42.122;24.746;2024-02-21T01:27:38;100233.19;;;7.49;100.00
2675;BME280;1347;42.122;24.746;2024-02-21T01:30:05;100225.34;;;7.47;100.00
2675;BME280;1347;42.122;24.746;2024-02-21T01:32:32;100218.28;;;7.46;100.00
2675;BME280;1347;42.122;24.746;2024-02-21T01:34:59;100223.56;;;7.51;100.00
2675;BME280;1347;42.122;24.746;2024-02-21T01:37:26;100224.63;;;7.59;100.00
2675;BME280;1347;42.122;24.746;2024-02-21T01:39:53;100220.16;;;7.54;100.00
2675;BME280;1347;42.122;24.746;2024-02-21T01:42:20;100217.25;;;7.59;100.00
2675;BME280;1347;42.122;24.746;2024-02-21T01:44:48;100224.28;;;7.60;100.00
2675;BME280;1347;42.122;24.746;2024-02-21T01:47:15;100222.47;;;7.64;100.00
2675;BME280;1347;42.122;24.746;2024-02-21T01:49:43;100213.31;;;7.69;100.00
2675;BME280;1347;42.122;24.746;2024-02-21T01:52:11;100221.28;;;7.74;100.00
2675;BME280;1347;42.122;24.746;2024-02-21T01:54:40;100216.31;;;7.76;100.00
2675;BME280;1347;42.122;24.746;2024-02-21T01:57:07;100219.50;;;7.57;100.00
2675;BME280;1347;42.122;24.746;2024-02-21T01:59:34;100213.38;;;7.39;100.00
2675;BME280;1347;42.122;24.746;2024-02-21T02:02:03;100208.34;;;7.21;100.00
2675;BME280;1347;42.122;24.746;2024-02-21T02:04:30;100207.09;;;7.18;100.00
2675;BME280;1347;42.122;24.746;2024-02-21T02:06:59;100204.47;;;7.01;100.00
2675;BME280;1347;42.122;24.746;2024-02-21T02:09:26;100203.72;;;6.92;100.00
2675;BME280;1347;42.122;24.746;2024-02-21T02:11:53;100204.03;;;6.90;100.00
2675;BME280;1347;42.122;24.746;2024-02-21T02:14:20;100205.19;;;6.81;100.00
2675;BME280;1347;42.122;24.746;2024-02-21T02:16:47;100204.19;;;6.85;100.00
2675;BME280;1347;42.122;24.746;2024-02-21T02:19:15;100193.94;;;6.82;100.00
2675;BME280;1347;42.122;24.746;2024-02-21T02:21:49;100195.22;;;6.85;100.00
2675;BME280;1347;42.122;24.746;2024-02-21T02:24:20;100199.44;;;6.74;100.00
2675;BME280;1347;42.122;24.746;2024-02-21T02:26:47;100208.59;;;6.69;100.00
2675;BME280;1347;42.122;24.746;2024-02-21T02:29:18;100202.03;;;6.70;100.00
2675;BME280;1347;42.122;24.746;2024-02-21T02:31:45;100206.16;;;6.76;100.00
2675;BME280;1347;42.122;24.746;2024-02-21T02:34:11;100203.59;;;6.80;100.00
2675;BME280;1347;42.122;24.746;2024-02-21T02:36:38;100206.25;;;6.59;100.00
2675;BME280;1347;42.122;24.746;2024-02-21T02:39:04;100212.34;;;6.56;100.00
2675;BME280;1347;42.122;24.746;2024-02-21T02:41:36;100207.69;;;6.56;100.00
2675;BME280;1347;42.122;24.746;2024-02-21T02:44:03;100213.09;;;6.65;100.00
2675;BME280;1347;42.122;24.746;2024-02-21T02:46:30;100209.91;;;6.63;100.00
2675;BME280;1347;42.122;24.746;2024-02-21T02:48:56;100211.53;;;6.55;100.00
2675;BME280;1347;42.122;24.746;2024-02-21T02:51:23;100208.78;;;6.64;100.00
2675;BME280;1347;42.122;24.746;2024-02-21T02:53:50;100216.63;;;6.65;100.00
2675;BME280;1347;42.122;24.746;2024-02-21T02:56:17;100214.06;;;6.69;100.00
2675;BME280;1347;42.122;24.746;2024-02-21T02:58:45;100206.81;;;6.73;100.00
2675;BME280;1347;42.122;24.746;2024-02-21T03:01:12;100210.66;;;6.72;100.00
2675;BME280;1347;42.122;24.746;2024-02-21T03:03:39;100202.00;;;6.79;100.00
2675;BME280;1347;42.122;24.746;2024-02-21T03:06:06;100203.44;;;6.76;100.00
2675;BME280;1347;42.122;24.746;2024-02-21T03:08:32;100204.19;;;6.85;100.00
2675;BME280;1347;42.122;24.746;2024-02-21T03:10:59;100205.28;;;6.93;100.00
2675;BME280;1347;42.122;24.746;2024-02-21T03:13:26;100200.19;;;6.91;100.00
2675;BME280;1347;42.122;24.746;2024-02-21T03:15:54;100202.72;;;6.96;100.00
2675;BME280;1347;42.122;24.746;2024-02-21T03:18:21;100210.09;;;6.96;100.00
2675;BME280;1347;42.122;24.746;2024-02-21T03:20:48;100206.72;;;6.99;100.00
2675;BME280;1347;42.122;24.746;2024-02-21T03:23:15;100201.09;;;6.95;100.00
2675;BME280;1347;42.122;24.746;2024-02-21T03:25:42;100201.06;;;7.04;100.00
2675;BME280;1347;42.122;24.746;2024-02-21T03:28:08;100192.44;;;7.02;100.00
2675;BME280;1347;42.122;24.746;2024-02-21T03:30:35;100197.53;;;7.03;100.00
2675;BME280;1347;42.122;24.746;2024-02-21T03:33:04;100192.06;;;7.12;100.00
2675;BME280;1347;42.122;24.746;2024-02-21T03:35:31;100194.84;;;7.24;100.00
2675;BME280;1347;42.122;24.746;2024-02-21T03:37:57;100197.25;;;7.26;100.00
2675;BME280;1347;42.122;24.746;2024-02-21T03:40:24;100195.97;;;7.23;100.00
2675;BME280;1347;42.122;24.746;2024-02-21T03:42:55;100191.94;;;7.29;100.00
2675;BME280;1347;42.122;24.746;2024-02-21T03:45:22;100198.31;;;7.33;100.00
2675;BME280;1347;42.122;24.746;2024-02-21T03:47:49;100192.59;;;7.26;100.00
2675;BME280;1347;42.122;24.746;2024-02-21T03:50:17;100197.50;;;7.33;100.00
2675;BME280;1347;42.122;24.746;2024-02-21T03:52:44;100194.75;;;7.42;100.00
2675;BME280;1347;42.122;24.746;2024-02-21T03:55:11;100196.00;;;7.44;100.00
2675;BME280;1347;42.122;24.746;2024-02-21T03:57:38;100198.72;;;7.44;100.00
2675;BME280;1347;42.122;24.746;2024-02-21T04:00:06;100200.78;;;7.47;100.00
2675;BME280;1347;42.122;24.746;2024-02-21T04:02:36;100201.59;;;7.48;100.00
2675;BME280;1347;42.122;24.746;2024-02-21T04:05:03;100195.28;;;7.56;100.00
2675;BME280;1347;42.122;24.746;2024-02-21T04:07:31;100207.78;;;7.57;100.00
2675;BME280;1347;42.122;24.746;2024-02-21T04:09:58;100201.66;;;7.60;100.00
2675;BME280;1347;42.122;24.746;2024-02-21T04:12:25;100213.84;;;7.62;100.00
2675;BME280;1347;42.122;24.746;2024-02-21T04:14:55;100206.47;;;7.63;100.00
2675;BME280;1347;42.122;24.746;2024-02-21T04:17:22;100203.53;;;7.68;100.00
2675;BME280;1347;42.122;24.746;2024-02-21T04:19:56;100199.34;;;7.70;100.00
2675;BME280;1347;42.122;24.746;2024-02-21T04:22:27;100201.28;;;7.70;100.00
2675;BME280;1347;42.122;24.746;2024-02-21T04:24:56;100205.94;;;7.69;100.00
2675;BME280;1347;42.122;24.746;2024-02-21T04:27:22;100215.31;;;7.60;100.00
2675;BME280;1347;42.122;24.746;2024-02-21T04:29:49;100205.31;;;7.64;100.00
2675;BME280;1347;42.122;24.746;2024-02-21T04:32:16;100212.50;;;7.68;100.00
2675;BME280;1347;42.122;24.746;2024-02-21T04:34:43;100221.25;;;7.62;100.00
2675;BME280;1347;42.122;24.746;2024-02-21T04:37:10;100223.75;;;7.46;100.00
2675;BME280;1347;42.122;24.746;2024-02-21T04:39:36;100225.56;;;7.42;100.00
2675;BME280;1347;42.122;24.746;2024-02-21T04:42:05;100227.50;;;7.33;100.00
2675;BME280;1347;42.122;24.746;2024-02-21T04:44:32;100230.63;;;7.23;100.00
2675;BME280;1347;42.122;24.746;2024-02-21T04:46:59;100228.25;;;7.13;100.00
2675;BME280;1347;42.122;24.746;2024-02-21T04:49:26;100222.91;;;6.95;100.00
2675;BME280;1347;42.122;24.746;2024-02-21T04:51:53;100232.38;;;6.98;100.00
2675;BME280;1347;42.122;24.746;2024-02-21T04:54:20;100232.69;;;6.96;100.00
2675;BME280;1347;42.122;24.746;2024-02-21T04:56:46;100239.59;;;6.94;100.00
2675;BME280;1347;42.122;24.746;2024-02-21T04:59:15;100236.41;;;6.92;100.00
2675;BME280;1347;42.122;24.746;2024-02-21T05:01:42;100236.69;;;6.99;100.00
2675;BME280;1347;42.122;24.746;2024-02-21T05:04:08;100242.75;;;7.05;100.00
2675;BME280;1347;42.122;24.746;2024-02-21T05:06:37;100246.28;;;7.05;100.00
2675;BME280;1347;42.122;24.746;2024-02-21T05:09:05;100247.56;;;7.08;100.00
2675;BME280;1347;42.122;24.746;2024-02-21T05:11:32;100247.72;;;7.11;100.00
2675;BME280;1347;42.122;24.746;2024-02-21T05:13:59;100249.94;;;7.09;100.00
2675;BME280;1347;42.122;24.746;2024-02-21T05:16:27;100255.25;;;7.06;100.00
2675;BME280;1347;42.122;24.746;2024-02-21T05:18:54;100259.56;;;6.69;100.00
2675;BME280;1347;42.122;24.746;2024-02-21T05:21:22;100257.50;;;6.57;100.00
2675;BME280;1347;42.122;24.746;2024-02-21T05:23:49;100257.69;;;6.43;100.00
2675;BME280;1347;42.122;24.746;2024-02-21T05:26:20;100263.34;;;6.30;100.00
2675;BME280;1347;42.122;24.746;2024-02-21T05:28:48;100254.69;;;6.36;100.00
2675;BME280;1347;42.122;24.746;2024-02-21T05:31:15;100252.63;;;6.16;100.00
2675;BME280;1347;42.122;24.746;2024-02-21T05:33:44;100259.19;;;6.15;100.00
2675;BME280;1347;42.122;24.746;2024-02-21T05:36:11;100258.88;;;6.16;100.00
2675;BME280;1347;42.122;24.746;2024-02-21T05:38:37;100263.03;;;6.14;100.00
2675;BME280;1347;42.122;24.746;2024-02-21T05:41:05;100265.94;;;6.09;100.00
2675;BME280;1347;42.122;24.746;2024-02-21T05:43:35;100275.22;;;6.08;100.00
2675;BME280;1347;42.122;24.746;2024-02-21T05:46:02;100283.81;;;5.84;100.00
2675;BME280;1347;42.122;24.746;2024-02-21T05:48:29;100274.22;;;5.86;100.00
2675;BME280;1347;42.122;24.746;2024-02-21T05:50:57;100273.72;;;5.67;100.00
2675;BME280;1347;42.122;24.746;2024-02-21T05:53:24;100281.41;;;5.82;100.00
2675;BME280;1347;42.122;24.746;2024-02-21T05:55:51;100276.75;;;5.83;100.00
2675;BME280;1347;42.122;24.746;2024-02-21T05:58:18;100271.84;;;5.94;100.00
2675;BME280;1347;42.122;24.746;2024-02-21T06:00:45;100280.97;;;5.98;100.00
2675;BME280;1347;42.122;24.746;2024-02-21T06:03:12;100284.63;;;6.02;100.00
2675;BME280;1347;42.122;24.746;2024-02-21T06:05:39;100279.38;;;6.05;100.00
2675;BME280;1347;42.122;24.746;2024-02-21T06:08:08;100280.47;;;6.13;100.00
2675;BME280;1347;42.122;24.746;2024-02-21T06:10:35;100281.44;;;6.25;100.00
2675;BME280;1347;42.122;24.746;2024-02-21T06:13:01;100289.75;;;6.38;100.00
2675;BME280;1347;42.122;24.746;2024-02-21T06:15:28;100289.75;;;6.46;100.00
2675;BME280;1347;42.122;24.746;2024-02-21T06:17:55;100295.00;;;6.60;100.00
2675;BME280;1347;42.122;24.746;2024-02-21T06:20:22;100295.47;;;6.62;100.00
2675;BME280;1347;42.122;24.746;2024-02-21T06:22:49;100299.31;;;6.70;100.00
2675;BME280;1347;42.122;24.746;2024-02-21T06:25:17;100304.22;;;6.85;100.00
2675;BME280;1347;42.122;24.746;2024-02-21T06:27:44;100305.31;;;6.92;100.00
2675;BME280;1347;42.122;24.746;2024-02-21T06:30:12;100304.97;;;7.02;100.00
2675;BME280;1347;42.122;24.746;2024-02-21T06:32:39;100307.31;;;7.13;100.00
2675;BME280;1347;42.122;24.746;2024-02-21T06:35:06;100313.38;;;7.27;100.00
2675;BME280;1347;42.122;24.746;2024-02-21T06:37:33;100301.66;;;7.26;100.00
2675;BME280;1347;42.122;24.746;2024-02-21T06:40:00;100306.94;;;7.31;100.00
2675;BME280;1347;42.122;24.746;2024-02-21T06:42:28;100309.16;;;7.38;100.00
2675;BME280;1347;42.122;24.746;2024-02-21T06:44:55;100308.19;;;7.43;100.00
2675;BME280;1347;42.122;24.746;2024-02-21T06:47:22;100311.94;;;7.59;100.00
2675;BME280;1347;42.122;24.746;2024-02-21T06:49:49;100305.16;;;7.65;100.00
2675;BME280;1347;42.122;24.746;2024-02-21T06:52:17;100304.97;;;7.70;100.00
2675;BME280;1347;42.122;24.746;2024-02-21T06:54:45;100306.97;;;7.82;100.00
2675;BME280;1347;42.122;24.746;2024-02-21T06:57:13;100318.75;;;7.94;100.00
2675;BME280;1347;42.122;24.746;2024-02-21T06:59:42;100317.75;;;7.99;100.00
2675;BME280;1347;42.122;24.746;2024-02-21T07:02:09;100312.84;;;8.13;100.00
2675;BME280;1347;42.122;24.746;2024-02-21T07:04:36;100319.38;;;8.21;100.00
2675;BME280;1347;42.122;24.746;2024-02-21T07:07:03;100318.25;;;8.42;100.00
2675;BME280;1347;42.122;24.746;2024-02-21T07:09:30;100322.19;;;8.66;100.00
2675;BME280;1347;42.122;24.746;2024-02-21T07:11:57;100319.66;;;8.94;100.00
2675;BME280;1347;42.122;24.746;2024-02-21T07:14:24;100322.88;;;9.08;100.00
2675;BME280;1347;42.122;24.746;2024-02-21T07:16:53;100311.97;;;9.32;100.00
2675;BME280;1347;42.122;24.746;2024-02-21T07:19:20;100309.66;;;9.71;100.00
2675;BME280;1347;42.122;24.746;2024-02-21T07:21:46;100314.50;;;10.02;100.00
2675;BME280;1347;42.122;24.746;2024-02-21T07:24:13;100314.47;;;10.26;100.00
2675;BME280;1347;42.122;24.746;2024-02-21T07:26:41;100315.13;;;10.63;100.00
2675;BME280;1347;42.122;24.746;2024-02-21T07:29:09;100314.72;;;10.92;100.00
2675;BME280;1347;42.122;24.746;2024-02-21T07:31:40;100316.72;;;11.07;100.00
2675;BME280;1347;42.122;24.746;2024-02-21T07:34:09;100321.75;;;11.05;100.00
2675;BME280;1347;42.122;24.746;2024-02-21T07:36:38;100316.16;;;11.33;100.00
2675;BME280;1347;42.122;24.746;2024-02-21T07:39:05;100318.19;;;11.52;99.52
2675;BME280;1347;42.122;24.746;2024-02-21T07:41:32;100317.28;;;11.64;99.76
2675;BME280;1347;42.122;24.746;2024-02-21T07:44:00;100319.28;;;11.98;99.09
2675;BME280;1347;42.122;24.746;2024-02-21T07:46:27;100316.56;;;12.37;96.21
2675;BME280;1347;42.122;24.746;2024-02-21T07:48:54;100325.34;;;12.84;94.88
2675;BME280;1347;42.122;24.746;2024-02-21T07:51:22;100326.09;;;13.04;91.49
2675;BME280;1347;42.122;24.746;2024-02-21T07:53:49;100322.66;;;13.30;91.81
2675;BME280;1347;42.122;24.746;2024-02-21T07:56:16;100334.81;;;13.52;86.33
2675;BME280;1347;42.122;24.746;2024-02-21T07:58:43;100332.69;;;13.19;85.52
2675;BME280;1347;42.122;24.746;2024-02-21T08:01:10;100330.75;;;13.00;86.42
2675;BME280;1347;42.122;24.746;2024-02-21T08:03:37;100324.53;;;12.61;87.92
2675;BME280;1347;42.122;24.746;2024-02-21T08:06:05;100325.81;;;12.48;88.58
2675;BME280;1347;42.122;24.746;2024-02-21T08:08:33;100329.63;;;12.63;88.89
2675;BME280;1347;42.122;24.746;2024-02-21T08:11:00;100327.91;;;12.54;88.84
2675;BME280;1347;42.122;24.746;2024-02-21T08:13:27;100328.28;;;12.34;89.60
2675;BME280;1347;42.122;24.746;2024-02-21T08:15:55;100330.75;;;12.39;88.07
2675;BME280;1347;42.122;24.746;2024-02-21T08:18:22;100323.91;;;12.13;88.36
2675;BME280;1347;42.122;24.746;2024-02-21T08:20:49;100319.47;;;11.74;89.39
2675;BME280;1347;42.122;24.746;2024-02-21T08:23:16;100329.78;;;11.77;89.49
2675;BME280;1347;42.122;24.746;2024-02-21T08:25:45;100331.91;;;11.84;87.30
2675;BME280;1347;42.122;24.746;2024-02-21T08:28:11;100337.06;;;11.69;87.76
2675;BME280;1347;42.122;24.746;2024-02-21T08:30:38;100334.22;;;11.66;88.31
2675;BME280;1347;42.122;24.746;2024-02-21T08:33:05;100331.56;;;11.54;87.97
2675;BME280;1347;42.122;24.746;2024-02-21T08:35:32;100324.56;;;11.56;88.56
2675;BME280;1347;42.122;24.746;2024-02-21T08:37:59;100334.75;;;11.56;87.32
2675;BME280;1347;42.122;24.746;2024-02-21T08:40:26;100337.66;;;11.63;87.24
2675;BME280;1347;42.122;24.746;2024-02-21T08:42:54;100342.53;;;11.69;86.44
2675;BME280;1347;42.122;24.746;2024-02-21T08:45:21;100331.84;;;11.49;85.60
2675;BME280;1347;42.122;24.746;2024-02-21T08:47:48;100334.91;;;11.63;85.10
2675;BME280;1347;42.122;24.746;2024-02-21T08:50:15;100334.50;;;11.76;85.95
2675;BME280;1347;42.122;24.746;2024-02-21T08:52:41;100335.78;;;11.98;85.65
2675;BME280;1347;42.122;24.746;2024-02-21T08:55:09;100334.56;;;12.15;83.09
2675;BME280;1347;42.122;24.746;2024-02-21T08:57:36;100332.22;;;11.98;81.77
2675;BME280;1347;42.122;24.746;2024-02-21T09:00:06;100335.44;;;12.19;81.64
2675;BME280;1347;42.122;24.746;2024-02-21T09:02:35;100342.44;;;12.16;79.94
2675;BME280;1347;42.122;24.746;2024-02-21T09:05:04;100345.00;;;12.25;80.00
2675;BME280;1347;42.122;24.746;2024-02-21T09:07:31;100341.88;;;12.46;79.92
2675;BME280;1347;42.122;24.746;2024-02-21T09:09:58;100340.03;;;12.50;79.11
2675;BME280;1347;42.122;24.746;2024-02-21T09:12:26;100344.88;;;12.99;79.02
2675;BME280;1347;42.122;24.746;2024-02-21T09:14:52;100348.34;;;13.38;78.86
2675;BME280;1347;42.122;24.746;2024-02-21T09:17:21;100349.72;;;14.00;75.47
2675;BME280;1347;42.122;24.746;2024-02-21T09:19:48;100340.47;;;14.75;72.49
2675;BME280;1347;42.122;24.746;2024-02-21T09:22:15;100347.28;;;15.66;69.96
2675;BME280;1347;42.122;24.746;2024-02-21T09:24:41;100346.28;;;15.95;66.94
2675;BME280;1347;42.122;24.746;2024-02-21T09:27:08;100344.25;;;16.58;63.27
2675;BME280;1347;42.122;24.746;2024-02-21T09:29:35;100340.47;;;17.83;62.20
2675;BME280;1347;42.122;24.746;2024-02-21T09:32:02;100348.19;;;18.66;57.51
2675;BME280;1347;42.122;24.746;2024-02-21T09:34:31;100334.31;;;19.76;56.33
2675;BME280;1347;42.122;24.746;2024-02-21T09:36:57;100342.31;;;20.80;49.69
2675;BME280;1347;42.122;24.746;2024-02-21T09:39:24;100335.38;;;21.22;47.81
2675;BME280;1347;42.122;24.746;2024-02-21T09:41:58;100329.59;;;21.36;45.51
2675;BME280;1347;42.122;24.746;2024-02-21T09:44:29;100339.44;;;22.70;45.07
2675;BME280;1347;42.122;24.746;2024-02-21T09:47:02;100337.16;;;23.37;41.89
2675;BME280;1347;42.122;24.746;2024-02-21T09:49:32;100336.97;;;23.76;40.42
2675;BME280;1347;42.122;24.746;2024-02-21T09:52:01;100342.31;;;22.66;40.77
2675;BME280;1347;42.122;24.746;2024-02-21T09:54:29;100335.28;;;21.99;42.68
2675;BME280;1347;42.122;24.746;2024-02-21T09:56:57;100328.06;;;21.55;43.69
2675;BME280;1347;42.122;24.746;2024-02-21T09:59:24;100327.38;;;22.17;41.43
2675;BME280;1347;42.122;24.746;2024-02-21T10:01:51;100324.03;;;21.79;41.43
2675;BME280;1347;42.122;24.746;2024-02-21T10:04:19;100321.47;;;22.12;42.21
2675;BME280;1347;42.122;24.746;2024-02-21T10:06:48;100306.47;;;21.59;42.91
2675;BME280;1347;42.122;24.746;2024-02-21T10:09:24;100316.78;;;21.39;43.11
2675;BME280;1347;42.122;24.746;2024-02-21T10:11:56;100308.31;;;22.12;42.14
2675;BME280;1347;42.122;24.746;2024-02-21T10:14:33;100300.41;;;21.87;41.88
2675;BME280;1347;42.122;24.746;2024-02-21T10:17:00;100299.94;;;22.32;40.99
2675;BME280;1347;42.122;24.746;2024-02-21T10:19:28;100296.88;;;22.82;39.41
2675;BME280;1347;42.122;24.746;2024-02-21T10:22:01;100297.25;;;23.00;39.74
2675;BME280;1347;42.122;24.746;2024-02-21T10:24:29;100286.28;;;23.09;38.96
2675;BME280;1347;42.122;24.746;2024-02-21T10:27:01;100279.88;;;23.25;39.42
2675;BME280;1347;42.122;24.746;2024-02-21T10:29:29;100276.81;;;23.68;38.53
2675;BME280;1347;42.122;24.746;2024-02-21T10:32:04;100259.69;;;23.50;37.29
2675;BME280;1347;42.122;24.746;2024-02-21T10:34:31;100257.16;;;23.07;38.28
2675;BME280;1347;42.122;24.746;2024-02-21T10:37:01;100258.53;;;23.47;36.63
2675;BME280;1347;42.122;24.746;2024-02-21T10:39:29;100254.88;;;23.34;36.95
2675;BME280;1347;42.122;24.746;2024-02-21T10:42:00;100252.13;;;23.63;36.81
2675;BME280;1347;42.122;24.746;2024-02-21T10:44:28;100245.78;;;23.92;36.56
2675;BME280;1347;42.122;24.746;2024-02-21T10:46:56;100245.28;;;23.80;37.01
2675;BME280;1347;42.122;24.746;2024-02-21T10:49:24;100235.38;;;24.05;36.06
2675;BME280;1347;42.122;24.746;2024-02-21T10:51:55;100233.94;;;23.71;37.16
2675;BME280;1347;42.122;24.746;2024-02-21T10:54:34;100225.72;;;23.64;36.39
2675;BME280;1347;42.122;24.746;2024-02-21T10:57:05;100230.03;;;23.53;36.77
2675;BME280;1347;42.122;24.746;2024-02-21T10:59:33;100220.09;;;23.03;37.14
2675;BME280;1347;42.122;24.746;2024-02-21T11:02:01;100220.78;;;22.91;36.83
2675;BME280;1347;42.122;24.746;2024-02-21T11:04:28;100211.03;;;22.47;36.99
2675;BME280;1347;42.122;24.746;2024-02-21T11:06:57;100204.59;;;22.30;38.39
2675;BME280;1347;42.122;24.746;2024-02-21T11:09:31;100207.91;;;22.25;37.64
2675;BME280;1347;42.122;24.746;2024-02-21T11:11:58;100199.25;;;22.55;37.80
2675;BME280;1347;42.122;24.746;2024-02-21T11:14:27;100200.41;;;22.02;38.42
2675;BME280;1347;42.122;24.746;2024-02-21T11:16:58;100191.72;;;21.96;38.69
2675;BME280;1347;42.122;24.746;2024-02-21T11:19:26;100190.88;;;21.99;38.51
2675;BME280;1347;42.122;24.746;2024-02-21T11:21:54;100200.03;;;22.20;38.20
2675;BME280;1347;42.122;24.746;2024-02-21T11:24:27;100191.19;;;21.42;38.76
2675;BME280;1347;42.122;24.746;2024-02-21T11:27:07;100188.16;;;21.76;38.13
2675;BME280;1347;42.122;24.746;2024-02-21T11:29:39;100187.66;;;20.68;38.49
2675;BME280;1347;42.122;24.746;2024-02-21T11:32:09;100182.19;;;19.70;40.78
2675;BME280;1347;42.122;24.746;2024-02-21T11:34:37;100181.69;;;19.78;40.95
2675;BME280;1347;42.122;24.746;2024-02-21T11:37:13;100174.03;;;19.86;41.48
2675;BME280;1347;42.122;24.746;2024-02-21T11:39:41;100172.41;;;19.13;42.77
2675;BME280;1347;42.122;24.746;2024-02-21T11:42:10;100164.81;;;19.21;42.54
2675;BME280;1347;42.122;24.746;2024-02-21T11:44:38;100165.13;;;19.30;41.72
2675;BME280;1347;42.122;24.746;2024-02-21T11:47:05;100167.53;;;19.66;41.38
2675;BME280;1347;42.122;24.746;2024-02-21T11:49:36;100163.97;;;19.24;40.93
2675;BME280;1347;42.122;24.746;2024-02-21T11:52:04;100160.97;;;18.53;41.93
2675;BME280;1347;42.122;24.746;2024-02-21T11:54:31;100147.94;;;18.50;42.73
2675;BME280;1347;42.122;24.746;2024-02-21T11:56:57;100153.75;;;18.69;42.27
2675;BME280;1347;42.122;24.746;2024-02-21T11:59:25;100151.81;;;18.63;41.79
2675;BME280;1347;42.122;24.746;2024-02-21T12:01:52;100150.25;;;18.55;41.47
2675;BME280;1347;42.122;24.746;2024-02-21T12:04:20;100152.97;;;18.72;41.21
2675;BME280;1347;42.122;24.746;2024-02-21T12:06:49;100154.41;;;18.88;41.07
2675;BME280;1347;42.122;24.746;2024-02-21T12:09:16;100145.06;;;19.53;39.50
2675;BME280;1347;42.122;24.746;2024-02-21T12:11:43;100139.56;;;20.37;39.21
2675;BME280;1347;42.122;24.746;2024-02-21T12:14:11;100143.59;;;20.86;38.00
2675;BME280;1347;42.122;24.746;2024-02-21T12:16:39;100138.78;;;20.64;37.58
2675;BME280;1347;42.122;24.746;2024-02-21T12:19:07;100132.78;;;21.35;36.71
2675;BME280;1347;42.122;24.746;2024-02-21T12:21:34;100140.72;;;21.37;36.64
2675;BME280;1347;42.122;24.746;2024-02-21T12:24:11;100120.66;;;21.81;36.65
2675;BME280;1347;42.122;24.746;2024-02-21T12:26:40;100123.09;;;21.79;35.86
2675;BME280;1347;42.122;24.746;2024-02-21T12:29:07;100125.56;;;22.13;35.93
2675;BME280;1347;42.122;24.746;2024-02-21T12:31:35;100121.63;;;22.47;35.93
2675;BME280;1347;42.122;24.746;2024-02-21T12:34:04;100120.84;;;22.95;33.55
2675;BME280;1347;42.122;24.746;2024-02-21T12:36:31;100119.63;;;23.25;33.54
2675;BME280;1347;42.122;24.746;2024-02-21T12:38:58;100113.41;;;23.33;33.17
2675;BME280;1347;42.122;24.746;2024-02-21T12:41:26;100112.88;;;22.93;33.54
2675;BME280;1347;42.122;24.746;2024-02-21T12:43:53;100106.38;;;22.15;34.50
2675;BME280;1347;42.122;24.746;2024-02-21T12:46:20;100100.63;;;21.86;34.61
2675;BME280;1347;42.122;24.746;2024-02-21T12:48:47;100088.41;;;22.16;35.21
2675;BME280;1347;42.122;24.746;2024-02-21T12:51:15;100080.31;;;22.54;34.93
2675;BME280;1347;42.122;24.746;2024-02-21T12:53:46;100081.38;;;22.77;34.65
2675;BME280;1347;42.122;24.746;2024-02-21T12:56:15;100079.72;;;22.47;35.30
2675;BME280;1347;42.122;24.746;2024-02-21T12:58:42;100076.47;;;22.48;35.27
2675;BME280;1347;42.122;24.746;2024-02-21T13:01:10;100081.88;;;22.23;34.95
2675;BME280;1347;42.122;24.746;2024-02-21T13:03:37;100078.97;;;22.10;34.60